Cave City, KY (42127)

7:34 AM CDT on July 27, 2016 (GMT -0500)
Glasgow Municipal | | Change Station

Elev 715 ft 37.03 °N, 85.95 °W | Updated 19 minutes ago

Clear
Clear
76 °F
Feels Like 76 °F
N
4
Wind Variable Wind from SW

Today
High -- | Low -- °F
--% Chance of Precip.
Yesterday
High -- | Low -- °F
Precip. -- in
Pressure 30.02 in
Visibility 10.0 miles
Clouds Clear
Dew Point 76 °F
Humidity 98%
Rainfall 0.00 in
Snow Depth Not available.
5:44 AM 7:54 PM
Last Quarter, 43% visible
METAR KGLW 271215Z AUTO 23003KT 10SM CLR 25/24 A3002 RMK AO2 LTG DSNT NE AND W T02460242 PWINO
Pressure 30.02 in
Visibility 10.0 miles
Clouds Clear
Dew Point 76 °F
Humidity 98%
Rainfall 0.00 in
Snow Depth Not available.
5:44 AM 7:54 PM
Last Quarter, 43% visible
METAR KGLW 271215Z AUTO 23003KT 10SM CLR 25/24 A3002 RMK AO2 LTG DSNT NE AND W T02460242 PWINO

10-Day Weather Forecast

Almanac

Astronomy

Jul. 27, 2016 Rise Set
Actual Time
Civil Twilight
Nautical Twilight
Astronomical Twilight
Moon
Length of Visible Light
Length of Day
Tomorrow will be .
, % of the Moon is Illuminated

Today's Extremes

State Highs State Lows

Community

WunderPhotos

Upload Photos

1,927,838 photos uploaded!

WunderBlog® & News

Nearby

Air Quality

  Air Quality AQ Index Pollutant
Not available.

Snow Depth

Station Depth Elevation

Earthquake Activity

City Distance Mag. Time & Date
Minimum magnitude displayed is 2.5.

Coastal Water Temperatures

Place Temperature

Stations

Nearby Weather Stations

Station Location Temp. Windchill Dew Point Humidity Wind Precip. Elev Updated Type
                   

Watches & Warnings

There are currently no watches in effect.